sensor_id;sensor_type;location;lat;lon;timestamp;pressure;altitude;pressure_sealevel;temperature;humidity
80648;BME280;70012;0.000;0.000;2023-07-30T00:01:16;100147.97;;;15.56;86.50
80648;BME280;70012;0.000;0.000;2023-07-30T00:03:43;100149.56;;;15.62;86.71
80648;BME280;70012;0.000;0.000;2023-07-30T00:06:10;100154.03;;;15.58;86.44
80648;BME280;70012;0.000;0.000;2023-07-30T00:08:37;100156.25;;;15.56;86.63
80648;BME280;70012;0.000;0.000;2023-07-30T00:11:04;100157.91;;;15.57;86.61
80648;BME280;70012;0.000;0.000;2023-07-30T00:13:31;100139.81;;;15.46;86.74
80648;BME280;70012;0.000;0.000;2023-07-30T00:15:58;100134.41;;;15.35;86.53
80648;BME280;70012;0.000;0.000;2023-07-30T00:18:25;100134.41;;;15.35;86.49
80648;BME280;70012;0.000;0.000;2023-07-30T00:20:53;100141.00;;;15.40;86.90
80648;BME280;70012;0.000;0.000;2023-07-30T00:23:20;100141.28;;;15.38;86.95
80648;BME280;70012;0.000;0.000;2023-07-30T00:25:47;100155.56;;;15.45;86.48
80648;BME280;70012;0.000;0.000;2023-07-30T00:28:15;100156.94;;;15.43;86.58
80648;BME280;70012;0.000;0.000;2023-07-30T00:30:42;100126.00;;;15.21;86.46
80648;BME280;70012;0.000;0.000;2023-07-30T00:33:09;100132.84;;;15.24;86.47
80648;BME280;70012;0.000;0.000;2023-07-30T00:35:36;100151.00;;;15.30;86.21
80648;BME280;70012;0.000;0.000;2023-07-30T00:38:03;100129.59;;;15.17;86.13
80648;BME280;70012;0.000;0.000;2023-07-30T00:40:30;100146.09;;;15.22;86.78
80648;BME280;70012;0.000;0.000;2023-07-30T00:42:57;100142.84;;;15.20;86.72
80648;BME280;70012;0.000;0.000;2023-07-30T00:45:24;100137.63;;;15.13;86.81
80648;BME280;70012;0.000;0.000;2023-07-30T00:47:51;100127.47;;;15.09;86.95
80648;BME280;70012;0.000;0.000;2023-07-30T00:50:18;100152.78;;;15.16;86.90
80648;BME280;70012;0.000;0.000;2023-07-30T00:52:45;100137.69;;;15.08;86.90
80648;BME280;70012;0.000;0.000;2023-07-30T00:55:13;100141.22;;;15.14;86.72
80648;BME280;70012;0.000;0.000;2023-07-30T00:57:41;100152.88;;;15.05;86.60
80648;BME280;70012;0.000;0.000;2023-07-30T01:00:10;100144.66;;;15.00;86.73
80648;BME280;70012;0.000;0.000;2023-07-30T01:02:38;100149.31;;;15.00;86.96
80648;BME280;70012;0.000;0.000;2023-07-30T01:05:05;100147.47;;;14.95;86.75
80648;BME280;70012;0.000;0.000;2023-07-30T01:07:33;100152.97;;;14.95;87.11
80648;BME280;70012;0.000;0.000;2023-07-30T01:10:01;100160.09;;;14.96;88.02
80648;BME280;70012;0.000;0.000;2023-07-30T01:12:30;100169.97;;;15.02;87.67
80648;BME280;70012;0.000;0.000;2023-07-30T01:14:58;100153.28;;;14.88;87.51
80648;BME280;70012;0.000;0.000;2023-07-30T01:17:26;100152.47;;;14.88;87.36
80648;BME280;70012;0.000;0.000;2023-07-30T01:19:53;100183.25;;;15.00;87.10
80648;BME280;70012;0.000;0.000;2023-07-30T01:22:23;100178.91;;;14.89;87.55
80648;BME280;70012;0.000;0.000;2023-07-30T01:24:50;100169.03;;;14.83;87.22
80648;BME280;70012;0.000;0.000;2023-07-30T01:27:39;100196.47;;;14.98;87.89
80648;BME280;70012;0.000;0.000;2023-07-30T01:30:09;100200.06;;;14.99;87.98
80648;BME280;70012;0.000;0.000;2023-07-30T01:32:40;100174.81;;;14.81;87.96
80648;BME280;70012;0.000;0.000;2023-07-30T01:35:08;100192.13;;;14.92;88.07
80648;BME280;70012;0.000;0.000;2023-07-30T01:37:37;100187.16;;;14.89;88.13
80648;BME280;70012;0.000;0.000;2023-07-30T01:40:07;100202.53;;;15.00;88.32
80648;BME280;70012;0.000;0.000;2023-07-30T01:42:36;100194.78;;;15.02;88.56
80648;BME280;70012;0.000;0.000;2023-07-30T01:45:04;100195.34;;;15.04;88.60
80648;BME280;70012;0.000;0.000;2023-07-30T01:47:32;100199.44;;;15.07;88.45
80648;BME280;70012;0.000;0.000;2023-07-30T01:49:59;100205.22;;;15.11;88.78
80648;BME280;70012;0.000;0.000;2023-07-30T01:52:26;100212.91;;;15.14;89.10
80648;BME280;70012;0.000;0.000;2023-07-30T01:54:53;100187.00;;;15.10;89.19
80648;BME280;70012;0.000;0.000;2023-07-30T01:57:23;100206.75;;;15.22;88.79
80648;BME280;70012;0.000;0.000;2023-07-30T01:59:50;100192.75;;;15.18;88.50
80648;BME280;70012;0.000;0.000;2023-07-30T02:02:18;100187.50;;;15.17;88.12
80648;BME280;70012;0.000;0.000;2023-07-30T02:04:45;100189.41;;;15.21;88.33
80648;BME280;70012;0.000;0.000;2023-07-30T02:07:12;100183.09;;;15.21;87.96
80648;BME280;70012;0.000;0.000;2023-07-30T02:09:40;100198.72;;;15.31;87.97
80648;BME280;70012;0.000;0.000;2023-07-30T02:12:08;100186.91;;;15.25;87.79
80648;BME280;70012;0.000;0.000;2023-07-30T02:14:35;100194.59;;;15.28;87.60
80648;BME280;70012;0.000;0.000;2023-07-30T02:17:04;100187.44;;;15.27;87.54
80648;BME280;70012;0.000;0.000;2023-07-30T02:19:34;100189.66;;;15.25;87.60
80648;BME280;70012;0.000;0.000;2023-07-30T02:22:01;100202.25;;;15.36;87.71
80648;BME280;70012;0.000;0.000;2023-07-30T02:24:28;100201.72;;;15.34;87.74
80648;BME280;70012;0.000;0.000;2023-07-30T02:26:55;100183.59;;;15.28;87.93
80648;BME280;70012;0.000;0.000;2023-07-30T02:29:22;100187.94;;;15.34;87.92
80648;BME280;70012;0.000;0.000;2023-07-30T02:31:50;100170.59;;;15.29;87.59
80648;BME280;70012;0.000;0.000;2023-07-30T02:34:17;100189.81;;;15.39;87.55
80648;BME280;70012;0.000;0.000;2023-07-30T02:36:45;100171.94;;;15.31;87.34
80648;BME280;70012;0.000;0.000;2023-07-30T02:39:15;100168.63;;;15.34;87.33
80648;BME280;70012;0.000;0.000;2023-07-30T02:41:43;100180.16;;;15.36;87.17
80648;BME280;70012;0.000;0.000;2023-07-30T02:44:09;100167.53;;;15.30;86.99
80648;BME280;70012;0.000;0.000;2023-07-30T02:46:36;100188.44;;;15.42;87.16
80648;BME280;70012;0.000;0.000;2023-07-30T02:49:03;100166.25;;;15.23;86.99
80648;BME280;70012;0.000;0.000;2023-07-30T02:51:30;100172.56;;;15.23;86.57
80648;BME280;70012;0.000;0.000;2023-07-30T02:53:58;100172.63;;;15.18;86.58
80648;BME280;70012;0.000;0.000;2023-07-30T02:56:26;100186.94;;;15.20;86.33
80648;BME280;70012;0.000;0.000;2023-07-30T02:58:53;100179.25;;;15.17;86.47
80648;BME280;70012;0.000;0.000;2023-07-30T03:01:24;100189.75;;;15.15;86.33
80648;BME280;70012;0.000;0.000;2023-07-30T03:03:53;100178.22;;;15.08;86.58
80648;BME280;70012;0.000;0.000;2023-07-30T03:06:20;100190.56;;;15.15;86.51
80648;BME280;70012;0.000;0.000;2023-07-30T03:08:48;100187.06;;;15.04;86.17
80648;BME280;70012;0.000;0.000;2023-07-30T03:11:17;100194.81;;;14.97;86.35
80648;BME280;70012;0.000;0.000;2023-07-30T03:13:44;100193.78;;;14.93;86.44
80648;BME280;70012;0.000;0.000;2023-07-30T03:16:11;100208.63;;;14.97;86.58
80648;BME280;70012;0.000;0.000;2023-07-30T03:18:40;100197.38;;;14.88;86.17
80648;BME280;70012;0.000;0.000;2023-07-30T03:21:07;100207.84;;;14.92;86.43
80648;BME280;70012;0.000;0.000;2023-07-30T03:23:40;100227.34;;;15.00;86.51
80648;BME280;70012;0.000;0.000;2023-07-30T03:26:11;100234.78;;;15.05;86.55
80648;BME280;70012;0.000;0.000;2023-07-30T03:28:38;100234.22;;;15.03;86.52
80648;BME280;70012;0.000;0.000;2023-07-30T03:31:06;100233.94;;;15.04;86.42
80648;BME280;70012;0.000;0.000;2023-07-30T03:33:35;100224.56;;;15.05;86.62
80648;BME280;70012;0.000;0.000;2023-07-30T03:36:02;100210.81;;;15.00;86.62
80648;BME280;70012;0.000;0.000;2023-07-30T03:38:30;100224.22;;;15.12;85.92
80648;BME280;70012;0.000;0.000;2023-07-30T03:40:57;100211.06;;;15.04;86.18
80648;BME280;70012;0.000;0.000;2023-07-30T03:43:23;100211.88;;;15.04;86.32
80648;BME280;70012;0.000;0.000;2023-07-30T03:45:51;100239.38;;;15.15;86.58
80648;BME280;70012;0.000;0.000;2023-07-30T03:48:18;100230.56;;;15.13;86.21
80648;BME280;70012;0.000;0.000;2023-07-30T03:50:46;100223.16;;;15.08;86.20
80648;BME280;70012;0.000;0.000;2023-07-30T03:53:13;100220.13;;;15.04;86.38
80648;BME280;70012;0.000;0.000;2023-07-30T03:55:41;100212.97;;;15.03;85.88
80648;BME280;70012;0.000;0.000;2023-07-30T03:58:09;100217.38;;;15.04;85.99
80648;BME280;70012;0.000;0.000;2023-07-30T04:00:36;100207.50;;;14.98;85.00
80648;BME280;70012;0.000;0.000;2023-07-30T04:03:04;100232.28;;;15.03;84.19
80648;BME280;70012;0.000;0.000;2023-07-30T04:05:31;100232.88;;;15.00;81.66
80648;BME280;70012;0.000;0.000;2023-07-30T04:07:58;100248.28;;;15.01;81.30
80648;BME280;70012;0.000;0.000;2023-07-30T04:10:24;100237.56;;;14.95;81.20
80648;BME280;70012;0.000;0.000;2023-07-30T04:12:51;100247.78;;;14.94;80.98
80648;BME280;70012;0.000;0.000;2023-07-30T04:15:18;100234.31;;;14.87;81.16
80648;BME280;70012;0.000;0.000;2023-07-30T04:17:45;100236.22;;;14.92;80.69
80648;BME280;70012;0.000;0.000;2023-07-30T04:20:12;100228.78;;;14.87;80.80
80648;BME280;70012;0.000;0.000;2023-07-30T04:22:39;100252.19;;;14.95;79.99
80648;BME280;70012;0.000;0.000;2023-07-30T04:25:08;100235.16;;;14.88;79.82
80648;BME280;70012;0.000;0.000;2023-07-30T04:27:37;100240.66;;;14.88;79.71
80648;BME280;70012;0.000;0.000;2023-07-30T04:30:06;100223.63;;;14.81;79.48
80648;BME280;70012;0.000;0.000;2023-07-30T04:32:33;100241.72;;;14.92;79.52
80648;BME280;70012;0.000;0.000;2023-07-30T04:35:01;100233.47;;;14.92;79.28
80648;BME280;70012;0.000;0.000;2023-07-30T04:37:28;100241.19;;;14.95;78.58
80648;BME280;70012;0.000;0.000;2023-07-30T04:39:56;100222.47;;;14.87;78.82
80648;BME280;70012;0.000;0.000;2023-07-30T04:42:23;100239.78;;;14.98;78.40
80648;BME280;70012;0.000;0.000;2023-07-30T04:44:50;100240.03;;;14.96;79.00
80648;BME280;70012;0.000;0.000;2023-07-30T04:47:17;100229.06;;;14.91;79.56
80648;BME280;70012;0.000;0.000;2023-07-30T04:49:45;100240.59;;;14.98;78.62
80648;BME280;70012;0.000;0.000;2023-07-30T04:52:12;100226.25;;;14.96;78.61
80648;BME280;70012;0.000;0.000;2023-07-30T04:54:38;100249.06;;;15.07;78.95
80648;BME280;70012;0.000;0.000;2023-07-30T04:57:06;100225.44;;;14.96;79.17
80648;BME280;70012;0.000;0.000;2023-07-30T04:59:33;100233.97;;;14.99;79.87
80648;BME280;70012;0.000;0.000;2023-07-30T05:02:00;100243.31;;;15.03;80.12
80648;BME280;70012;0.000;0.000;2023-07-30T05:04:27;100241.66;;;15.02;80.29
80648;BME280;70012;0.000;0.000;2023-07-30T05:06:55;100246.31;;;15.07;80.31
80648;BME280;70012;0.000;0.000;2023-07-30T05:09:22;100241.59;;;15.13;80.65
80648;BME280;70012;0.000;0.000;2023-07-30T05:11:49;100233.88;;;15.10;80.20
80648;BME280;70012;0.000;0.000;2023-07-30T05:14:16;100242.09;;;15.20;80.59
80648;BME280;70012;0.000;0.000;2023-07-30T05:16:43;100243.72;;;15.26;80.88
80648;BME280;70012;0.000;0.000;2023-07-30T05:19:10;100232.13;;;15.24;80.53
80648;BME280;70012;0.000;0.000;2023-07-30T05:21:37;100237.59;;;15.34;79.85
80648;BME280;70012;0.000;0.000;2023-07-30T05:24:04;100236.44;;;15.41;80.20
80648;BME280;70012;0.000;0.000;2023-07-30T05:26:31;100240.78;;;15.47;80.58
80648;BME280;70012;0.000;0.000;2023-07-30T05:28:58;100243.78;;;15.50;80.54
80648;BME280;70012;0.000;0.000;2023-07-30T05:31:25;100246.78;;;15.54;80.20
80648;BME280;70012;0.000;0.000;2023-07-30T05:33:53;100251.16;;;15.60;80.21
80648;BME280;70012;0.000;0.000;2023-07-30T05:36:20;100242.88;;;15.60;80.07
80648;BME280;70012;0.000;0.000;2023-07-30T05:38:47;100239.56;;;15.58;80.16
80648;BME280;70012;0.000;0.000;2023-07-30T05:41:14;100250.56;;;15.63;79.57
80648;BME280;70012;0.000;0.000;2023-07-30T05:43:41;100242.34;;;15.58;79.51
80648;BME280;70012;0.000;0.000;2023-07-30T05:46:09;100241.28;;;15.54;79.36
80648;BME280;70012;0.000;0.000;2023-07-30T05:48:37;100240.94;;;15.61;78.84
80648;BME280;70012;0.000;0.000;2023-07-30T05:51:05;100241.78;;;15.61;78.60
80648;BME280;70012;0.000;0.000;2023-07-30T05:53:32;100247.19;;;15.72;78.71
80648;BME280;70012;0.000;0.000;2023-07-30T05:55:59;100247.72;;;15.74;78.63
80648;BME280;70012;0.000;0.000;2023-07-30T05:58:26;100248.75;;;15.83;77.96
80648;BME280;70012;0.000;0.000;2023-07-30T06:00:53;100241.09;;;15.75;78.26
80648;BME280;70012;0.000;0.000;2023-07-30T06:03:19;100231.78;;;15.65;77.94
80648;BME280;70012;0.000;0.000;2023-07-30T06:05:47;100248.22;;;15.76;78.44
80648;BME280;70012;0.000;0.000;2023-07-30T06:08:14;100259.28;;;15.76;77.34
80648;BME280;70012;0.000;0.000;2023-07-30T06:10:41;100262.63;;;15.73;78.29
80648;BME280;70012;0.000;0.000;2023-07-30T06:13:08;100246.44;;;15.61;78.34
80648;BME280;70012;0.000;0.000;2023-07-30T06:15:35;100262.63;;;15.73;78.37
80648;BME280;70012;0.000;0.000;2023-07-30T06:18:15;100271.97;;;15.77;78.86
80648;BME280;70012;0.000;0.000;2023-07-30T06:20:45;100247.81;;;15.63;79.21
80648;BME280;70012;0.000;0.000;2023-07-30T06:23:12;100261.28;;;15.70;79.55
80648;BME280;70012;0.000;0.000;2023-07-30T06:25:41;100254.97;;;15.64;78.80
80648;BME280;70012;0.000;0.000;2023-07-30T06:28:08;100243.97;;;15.59;78.93
80648;BME280;70012;0.000;0.000;2023-07-30T06:30:35;100269.25;;;15.72;78.69
80648;BME280;70012;0.000;0.000;2023-07-30T06:33:03;100261.56;;;15.68;78.28
80648;BME280;70012;0.000;0.000;2023-07-30T06:35:34;100247.28;;;15.61;78.12
80648;BME280;70012;0.000;0.000;2023-07-30T06:38:00;100270.91;;;15.73;78.86
80648;BME280;70012;0.000;0.000;2023-07-30T06:40:27;100279.97;;;15.78;78.85
80648;BME280;70012;0.000;0.000;2023-07-30T06:42:56;100275.84;;;15.76;78.89
80648;BME280;70012;0.000;0.000;2023-07-30T06:45:22;100287.13;;;15.79;78.72
80648;BME280;70012;0.000;0.000;2023-07-30T06:47:49;100306.16;;;15.86;79.50
80648;BME280;70012;0.000;0.000;2023-07-30T06:50:16;100305.59;;;15.84;79.42
80648;BME280;70012;0.000;0.000;2023-07-30T06:52:43;100295.41;;;15.79;78.98
80648;BME280;70012;0.000;0.000;2023-07-30T06:55:10;100310.03;;;15.85;78.71
80648;BME280;70012;0.000;0.000;2023-07-30T06:57:37;100318.25;;;15.90;79.01
80648;BME280;70012;0.000;0.000;2023-07-30T07:00:04;100317.72;;;15.88;79.35
80648;BME280;70012;0.000;0.000;2023-07-30T07:02:31;100328.66;;;15.98;79.31
80648;BME280;70012;0.000;0.000;2023-07-30T07:04:59;100314.91;;;15.93;79.33
80648;BME280;70012;0.000;0.000;2023-07-30T07:07:26;100324.19;;;16.03;79.52
80648;BME280;70012;0.000;0.000;2023-07-30T07:09:54;100319.75;;;16.07;80.36
80648;BME280;70012;0.000;0.000;2023-07-30T07:12:21;100302.72;;;15.99;80.28
80648;BME280;70012;0.000;0.000;2023-07-30T07:14:48;100319.66;;;16.17;80.49
80648;BME280;70012;0.000;0.000;2023-07-30T07:17:15;100324.31;;;16.22;78.50
80648;BME280;70012;0.000;0.000;2023-07-30T07:19:42;100322.31;;;16.27;78.86
80648;BME280;70012;0.000;0.000;2023-07-30T07:22:08;100303.84;;;16.23;79.35
80648;BME280;70012;0.000;0.000;2023-07-30T07:24:35;100327.66;;;16.43;78.87
80648;BME280;70012;0.000;0.000;2023-07-30T07:27:02;100309.47;;;16.42;79.00
80648;BME280;70012;0.000;0.000;2023-07-30T07:29:30;100304.44;;;16.44;79.48
80648;BME280;70012;0.000;0.000;2023-07-30T07:31:57;100312.41;;;16.51;79.24
80648;BME280;70012;0.000;0.000;2023-07-30T07:34:24;100313.69;;;16.58;78.86
80648;BME280;70012;0.000;0.000;2023-07-30T07:36:51;100305.94;;;16.60;78.63
80648;BME280;70012;0.000;0.000;2023-07-30T07:39:20;100326.22;;;16.75;78.80
80648;BME280;70012;0.000;0.000;2023-07-30T07:41:47;100323.13;;;16.76;78.71
80648;BME280;70012;0.000;0.000;2023-07-30T07:44:15;100315.16;;;16.75;78.91
80648;BME280;70012;0.000;0.000;2023-07-30T07:46:44;100326.25;;;16.94;78.04
80648;BME280;70012;0.000;0.000;2023-07-30T07:49:11;100307.19;;;16.92;76.92
80648;BME280;70012;0.000;0.000;2023-07-30T07:51:38;100320.84;;;17.08;76.89
80648;BME280;70012;0.000;0.000;2023-07-30T07:54:10;100336.06;;;17.24;75.21
80648;BME280;70012;0.000;0.000;2023-07-30T07:56:38;100321.50;;;17.19;73.84
80648;BME280;70012;0.000;0.000;2023-07-30T07:59:05;100310.72;;;17.17;73.02
80648;BME280;70012;0.000;0.000;2023-07-30T08:01:32;100325.00;;;17.24;71.33
80648;BME280;70012;0.000;0.000;2023-07-30T08:03:58;100314.91;;;17.15;70.01
80648;BME280;70012;0.000;0.000;2023-07-30T08:06:25;100334.59;;;17.13;69.81
80648;BME280;70012;0.000;0.000;2023-07-30T08:08:52;100327.41;;;17.12;70.37
80648;BME280;70012;0.000;0.000;2023-07-30T08:11:19;100334.44;;;17.23;70.74
80648;BME280;70012;0.000;0.000;2023-07-30T08:13:49;100328.09;;;17.23;70.00
80648;BME280;70012;0.000;0.000;2023-07-30T08:16:17;100340.63;;;17.34;69.87
80648;BME280;70012;0.000;0.000;2023-07-30T08:18:44;100339.28;;;17.32;70.49
80648;BME280;70012;0.000;0.000;2023-07-30T08:21:12;100329.34;;;17.31;70.37
80648;BME280;70012;0.000;0.000;2023-07-30T08:23:52;100315.00;;;17.28;69.93
80648;BME280;70012;0.000;0.000;2023-07-30T08:26:19;100341.31;;;17.45;69.71
80648;BME280;70012;0.000;0.000;2023-07-30T08:28:46;100329.22;;;17.41;70.07
80648;BME280;70012;0.000;0.000;2023-07-30T08:31:13;100326.00;;;17.53;69.78
80648;BME280;70012;0.000;0.000;2023-07-30T08:33:41;100336.06;;;17.63;69.49
80648;BME280;70012;0.000;0.000;2023-07-30T08:36:08;100330.44;;;17.68;69.47
80648;BME280;70012;0.000;0.000;2023-07-30T08:38:35;100333.81;;;17.65;68.27
80648;BME280;70012;0.000;0.000;2023-07-30T08:41:04;100332.16;;;17.64;68.43
80648;BME280;70012;0.000;0.000;2023-07-30T08:43:31;100325.59;;;17.59;69.38
80648;BME280;70012;0.000;0.000;2023-07-30T08:45:59;100353.09;;;17.70;69.03
80648;BME280;70012;0.000;0.000;2023-07-30T08:48:27;100335.47;;;17.66;69.00
80648;BME280;70012;0.000;0.000;2023-07-30T08:50:56;100326.56;;;17.69;69.24
80648;BME280;70012;0.000;0.000;2023-07-30T08:53:25;100326.25;;;17.70;69.23
80648;BME280;70012;0.000;0.000;2023-07-30T08:55:54;100344.66;;;17.80;68.79
80648;BME280;70012;0.000;0.000;2023-07-30T08:58:22;100330.63;;;17.90;68.19
80648;BME280;70012;0.000;0.000;2023-07-30T09:00:53;100338.91;;;18.10;67.50
80648;BME280;70012;0.000;0.000;2023-07-30T09:03:24;100355.06;;;18.35;68.06
80648;BME280;70012;0.000;0.000;2023-07-30T09:05:54;100352.94;;;18.46;64.89
80648;BME280;70012;0.000;0.000;2023-07-30T09:08:21;100355.28;;;18.39;63.97
80648;BME280;70012;0.000;0.000;2023-07-30T09:10:49;100341.84;;;18.46;65.29
80648;BME280;70012;0.000;0.000;2023-07-30T09:13:22;100351.81;;;18.75;64.84
80648;BME280;70012;0.000;0.000;2023-07-30T09:15:52;100350.66;;;18.90;63.42
80648;BME280;70012;0.000;0.000;2023-07-30T09:18:19;100356.00;;;18.86;62.23
80648;BME280;70012;0.000;0.000;2023-07-30T09:20:46;100358.91;;;18.95;62.21
80648;BME280;70012;0.000;0.000;2023-07-30T09:23:13;100363.31;;;19.10;62.49
80648;BME280;70012;0.000;0.000;2023-07-30T09:25:40;100365.16;;;19.15;61.73
80648;BME280;70012;0.000;0.000;2023-07-30T09:28:07;100372.53;;;19.19;60.21
80648;BME280;70012;0.000;0.000;2023-07-30T09:30:34;100378.28;;;19.23;59.74
80648;BME280;70012;0.000;0.000;2023-07-30T09:33:01;100386.81;;;19.27;61.50
80648;BME280;70012;0.000;0.000;2023-07-30T09:35:28;100381.59;;;19.11;60.73
80648;BME280;70012;0.000;0.000;2023-07-30T09:38:00;100382.94;;;19.00;60.31
80648;BME280;70012;0.000;0.000;2023-07-30T09:40:35;100381.72;;;18.92;60.89
80648;BME280;70012;0.000;0.000;2023-07-30T09:43:04;100380.66;;;18.88;60.84
80648;BME280;70012;0.000;0.000;2023-07-30T09:45:39;100381.94;;;18.96;61.18
80648;BME280;70012;0.000;0.000;2023-07-30T09:48:10;100382.31;;;19.17;60.62
80648;BME280;70012;0.000;0.000;2023-07-30T09:50:37;100379.63;;;19.40;59.59
80648;BME280;70012;0.000;0.000;2023-07-30T09:53:04;100378.75;;;19.53;58.38
80648;BME280;70012;0.000;0.000;2023-07-30T09:55:31;100378.81;;;19.62;57.70
80648;BME280;70012;0.000;0.000;2023-07-30T09:57:58;100377.03;;;19.66;59.44
80648;BME280;70012;0.000;0.000;2023-07-30T10:00:27;100383.50;;;19.75;56.13
80648;BME280;70012;0.000;0.000;2023-07-30T10:02:58;100393.63;;;19.94;54.69
80648;BME280;70012;0.000;0.000;2023-07-30T10:05:29;100383.69;;;20.24;55.45
80648;BME280;70012;0.000;0.000;2023-07-30T10:07:59;100381.69;;;20.47;54.38
80648;BME280;70012;0.000;0.000;2023-07-30T10:10:28;100381.22;;;20.54;53.26
80648;BME280;70012;0.000;0.000;2023-07-30T10:13:00;100382.91;;;20.64;53.67
80648;BME280;70012;0.000;0.000;2023-07-30T10:15:34;100381.34;;;20.72;52.01
80648;BME280;70012;0.000;0.000;2023-07-30T10:18:01;100383.56;;;20.92;52.00
80648;BME280;70012;0.000;0.000;2023-07-30T10:20:31;100388.25;;;20.83;52.04
80648;BME280;70012;0.000;0.000;2023-07-30T10:22:59;100382.47;;;20.71;54.09
80648;BME280;70012;0.000;0.000;2023-07-30T10:25:42;100388.94;;;20.57;53.62
80648;BME280;70012;0.000;0.000;2023-07-30T10:31:00;100385.53;;;20.06;52.55
80648;BME280;70012;0.000;0.000;2023-07-30T10:33:50;100387.47;;;19.97;52.81
80648;BME280;70012;0.000;0.000;2023-07-30T10:36:37;100385.13;;;19.90;53.42
80648;BME280;70012;0.000;0.000;2023-07-30T10:39:26;100395.00;;;20.05;53.90
80648;BME280;70012;0.000;0.000;2023-07-30T10:41:58;100380.22;;;20.19;53.70
80648;BME280;70012;0.000;0.000;2023-07-30T10:44:33;100379.56;;;20.13;52.42
80648;BME280;70012;0.000;0.000;2023-07-30T10:47:01;100382.66;;;20.43;52.88
80648;BME280;70012;0.000;0.000;2023-07-30T10:49:39;100380.00;;;20.38;52.51
80648;BME280;70012;0.000;0.000;2023-07-30T10:52:07;100377.81;;;20.26;51.71
80648;BME280;70012;0.000;0.000;2023-07-30T10:55:01;100375.56;;;20.28;52.17
80648;BME280;70012;0.000;0.000;2023-07-30T10:57:31;100373.28;;;20.30;53.96
80648;BME280;70012;0.000;0.000;2023-07-30T11:00:02;100373.91;;;20.27;52.82
80648;BME280;70012;0.000;0.000;2023-07-30T11:02:29;100362.16;;;20.30;51.19
80648;BME280;70012;0.000;0.000;2023-07-30T11:04:56;100361.69;;;20.37;50.81
80648;BME280;70012;0.000;0.000;2023-07-30T11:07:23;100358.13;;;20.76;50.78
80648;BME280;70012;0.000;0.000;2023-07-30T11:09:59;100365.81;;;21.37;48.85
80648;BME280;70012;0.000;0.000;2023-07-30T11:12:29;100360.75;;;21.57;47.65
80648;BME280;70012;0.000;0.000;2023-07-30T11:15:01;100362.56;;;21.70;49.95
80648;BME280;70012;0.000;0.000;2023-07-30T11:17:27;100362.81;;;22.13;46.43
80648;BME280;70012;0.000;0.000;2023-07-30T11:19:54;100361.44;;;22.45;45.89
80648;BME280;70012;0.000;0.000;2023-07-30T11:22:30;100373.72;;;22.53;44.78
80648;BME280;70012;0.000;0.000;2023-07-30T11:24:59;100376.53;;;22.35;45.39
80648;BME280;70012;0.000;0.000;2023-07-30T11:27:28;100385.94;;;22.04;44.50
80648;BME280;70012;0.000;0.000;2023-07-30T11:29:56;100376.13;;;21.89;45.47
80648;BME280;70012;0.000;0.000;2023-07-30T11:32:23;100376.66;;;21.83;46.32
80648;BME280;70012;0.000;0.000;2023-07-30T11:34:52;100374.50;;;21.97;47.01
80648;BME280;70012;0.000;0.000;2023-07-30T11:37:21;100374.97;;;21.99;46.87
80648;BME280;70012;0.000;0.000;2023-07-30T11:39:49;100380.53;;;21.99;46.95
80648;BME280;70012;0.000;0.000;2023-07-30T11:42:16;100383.16;;;22.04;46.42
80648;BME280;70012;0.000;0.000;2023-07-30T11:44:43;100382.50;;;22.07;46.80
80648;BME280;70012;0.000;0.000;2023-07-30T11:47:10;100386.13;;;21.90;44.40
80648;BME280;70012;0.000;0.000;2023-07-30T11:49:37;100383.19;;;21.87;44.54
80648;BME280;70012;0.000;0.000;2023-07-30T11:52:08;100383.19;;;21.87;45.00
80648;BME280;70012;0.000;0.000;2023-07-30T11:54:35;100385.47;;;21.76;46.04
80648;BME280;70012;0.000;0.000;2023-07-30T11:57:02;100389.75;;;21.73;44.76
80648;BME280;70012;0.000;0.000;2023-07-30T11:59:32;100391.06;;;21.67;45.66
80648;BME280;70012;0.000;0.000;2023-07-30T12:02:00;100396.44;;;21.81;46.67
80648;BME280;70012;0.000;0.000;2023-07-30T12:04:42;100404.47;;;22.00;45.37
80648;BME280;70012;0.000;0.000;2023-07-30T12:07:10;100390.03;;;21.98;46.41
80648;BME280;70012;0.000;0.000;2023-07-30T12:09:36;100389.03;;;22.12;46.79
80648;BME280;70012;0.000;0.000;2023-07-30T12:12:05;100396.75;;;22.15;46.02
80648;BME280;70012;0.000;0.000;2023-07-30T12:14:43;100395.25;;;22.26;45.16
80648;BME280;70012;0.000;0.000;2023-07-30T12:17:10;100400.38;;;22.06;46.08
80648;BME280;70012;0.000;0.000;2023-07-30T12:19:37;100417.13;;;21.80;44.86
80648;BME280;70012;0.000;0.000;2023-07-30T12:22:04;100410.22;;;21.60;45.90
80648;BME280;70012;0.000;0.000;2023-07-30T12:24:30;100407.59;;;21.72;47.58
80648;BME280;70012;0.000;0.000;2023-07-30T12:26:57;100405.50;;;21.69;46.33
80648;BME280;70012;0.000;0.000;2023-07-30T12:29:25;100423.84;;;21.70;47.67
80648;BME280;70012;0.000;0.000;2023-07-30T12:31:52;100423.19;;;21.73;46.29
80648;BME280;70012;0.000;0.000;2023-07-30T12:34:22;100414.66;;;21.79;43.80
80648;BME280;70012;0.000;0.000;2023-07-30T12:37:13;100412.72;;;21.70;43.61
80648;BME280;70012;0.000;0.000;2023-07-30T12:42:17;100404.00;;;22.07;46.13
80648;BME280;70012;0.000;0.000;2023-07-30T12:44:44;100411.34;;;22.29;45.73
80648;BME280;70012;0.000;0.000;2023-07-30T12:47:10;100407.56;;;22.43;45.34
80648;BME280;70012;0.000;0.000;2023-07-30T12:49:37;100402.75;;;22.52;43.96
80648;BME280;70012;0.000;0.000;2023-07-30T12:52:04;100404.09;;;22.46;44.98
80648;BME280;70012;0.000;0.000;2023-07-30T12:54:36;100400.97;;;22.30;45.00
80648;BME280;70012;0.000;0.000;2023-07-30T12:57:03;100413.47;;;22.23;45.47
80648;BME280;70012;0.000;0.000;2023-07-30T12:59:30;100410.22;;;22.04;44.69
80648;BME280;70012;0.000;0.000;2023-07-30T13:01:58;100408.75;;;21.89;44.99
80648;BME280;70012;0.000;0.000;2023-07-30T13:04:25;100412.03;;;21.73;45.73
80648;BME280;70012;0.000;0.000;2023-07-30T13:06:54;100418.09;;;21.75;46.65
80648;BME280;70012;0.000;0.000;2023-07-30T13:09:21;100421.38;;;21.69;47.14
80648;BME280;70012;0.000;0.000;2023-07-30T13:11:48;100422.53;;;21.77;47.79